Airfield :







YOU CAN JOIN US ON...

 
LOGIN :

Register | Disclaimer

   EN    FR    IT 

 









Legend :    VFR   Marginal VFR   IFR   Intensive IFR   Very Intensive IFR
Visi :
Ceiling :
>= 8 km
>= 3000ft
5 to 8 km
1000 to 3000 ft
1500m to 5 km
500 to 1000 ft
800 to 1500m
200 to 500 ft
< 800m
< 200 ft
Symbols :   Thunderstorms  Fog  Heavy snow  Heavy precipitations  Wind > 20 kt






- Airport Elevation : 232 ft
- IATA code : YQM


CYQM - Greater Moncton International

CURRENT METAR :
  • 080600Z 15005KT 15SM BKN180 BKN190 M09/M10 A2998 RMK AC5AC2 FROIN SLP159

EXPIRED METARs :
  • 080500Z VRB02KT 15SM SCT190 BKN200 M10/M11 A3003 RMK AC4CI2 FROIN SLP176
  • 080400Z 11006KT 15SM FEW240 SCT250 M12/M14 A3001 RMK CI2CI2 FROIN PRESFR SLP171

TAF TAF CYQM
Valid from the 08 at 06:00 until the 09 at 06:00 UTC


080540Z 0806/0906 22005KT P6SM BKN200
FM080800 16008KT 6SM -SN SCT015 OVC050
TEMPO 0808/0811 1 1/2SM -SN OVC015
FM081100 24008KT 6SM BR SCT006 OVC012
TEMPO 0811/0815 2SM -SN BR BKN006 OVC012
PROB30 0811/0815 2 1/2SM -SN -FZDZ BR
FM081500 26012KT P6SM BKN015
TEMPO 0815/0818 BKN025
FM081800 27010G20KT P6SM BKN030
FM082300 31012KT P6SM SCT100 RMK NXT FCST BY 081200Z
CZQM FIR / North America



MET'MAP, your aeronautical weather chart ! - Copyright ORBIFLY December 2007 - Disclaimer

ORBIFLY MET'MAP TEAM :

Programming & Development : Alexandra Zaïnal
Original concept : Baudouin d'Aumeries
Technical & hardware support : Manuel Goepfert
Assistance : Marc-Olivier Méhu




SOURCES & CREDITS :

   NOAA